sensor_id;sensor_type;location;lat;lon;timestamp;P1;durP1;ratioP1;P2;durP2;ratioP2
52734;SDS011;38631;47.572;10.704;2023-11-19T00:02:18;0.80;;;0.40;;
52734;SDS011;38631;47.572;10.704;2023-11-19T00:04:44;1.23;;;0.68;;
52734;SDS011;38631;47.572;10.704;2023-11-19T00:07:09;1.60;;;0.80;;
52734;SDS011;38631;47.572;10.704;2023-11-19T00:09:37;0.73;;;0.40;;
52734;SDS011;38631;47.572;10.704;2023-11-19T00:12:03;0.50;;;0.30;;
52734;SDS011;38631;47.572;10.704;2023-11-19T00:14:29;0.70;;;0.30;;
52734;SDS011;38631;47.572;10.704;2023-11-19T00:16:55;0.30;;;0.30;;
52734;SDS011;38631;47.572;10.704;2023-11-19T00:19:21;0.30;;;0.20;;
52734;SDS011;38631;47.572;10.704;2023-11-19T00:21:46;0.45;;;0.30;;
52734;SDS011;38631;47.572;10.704;2023-11-19T00:24:12;0.70;;;0.40;;
52734;SDS011;38631;47.572;10.704;2023-11-19T00:26:37;0.45;;;0.30;;
52734;SDS011;38631;47.572;10.704;2023-11-19T00:29:03;0.85;;;0.47;;
52734;SDS011;38631;47.572;10.704;2023-11-19T00:31:29;0.38;;;0.30;;
52734;SDS011;38631;47.572;10.704;2023-11-19T00:33:55;0.30;;;0.20;;
52734;SDS011;38631;47.572;10.704;2023-11-19T00:36:20;0.95;;;0.28;;
52734;SDS011;38631;47.572;10.704;2023-11-19T00:38:46;0.40;;;0.20;;
52734;SDS011;38631;47.572;10.704;2023-11-19T00:41:11;2.17;;;0.30;;
52734;SDS011;38631;47.572;10.704;2023-11-19T00:43:36;5.38;;;0.60;;
52734;SDS011;38631;47.572;10.704;2023-11-19T00:46:02;0.65;;;0.20;;
52734;SDS011;38631;47.572;10.704;2023-11-19T00:48:28;0.47;;;0.20;;
52734;SDS011;38631;47.572;10.704;2023-11-19T00:50:53;0.20;;;0.20;;
52734;SDS011;38631;47.572;10.704;2023-11-19T00:53:19;0.25;;;0.17;;
52734;SDS011;38631;47.572;10.704;2023-11-19T00:55:44;1.05;;;0.70;;
52734;SDS011;38631;47.572;10.704;2023-11-19T00:58:09;0.22;;;0.20;;
52734;SDS011;38631;47.572;10.704;2023-11-19T01:00:35;0.20;;;0.15;;
52734;SDS011;38631;47.572;10.704;2023-11-19T01:03:00;0.50;;;0.20;;
52734;SDS011;38631;47.572;10.704;2023-11-19T01:05:26;0.32;;;0.20;;
52734;SDS011;38631;47.572;10.704;2023-11-19T01:07:52;0.28;;;0.20;;
52734;SDS011;38631;47.572;10.704;2023-11-19T01:10:18;1.33;;;0.30;;
52734;SDS011;38631;47.572;10.704;2023-11-19T01:12:44;0.20;;;0.13;;
52734;SDS011;38631;47.572;10.704;2023-11-19T01:15:09;0.40;;;0.20;;
52734;SDS011;38631;47.572;10.704;2023-11-19T01:17:36;0.68;;;0.30;;
52734;SDS011;38631;47.572;10.704;2023-11-19T01:20:02;0.30;;;0.20;;
52734;SDS011;38631;47.572;10.704;2023-11-19T01:22:31;0.30;;;0.20;;
52734;SDS011;38631;47.572;10.704;2023-11-19T01:24:56;0.70;;;0.40;;
52734;SDS011;38631;47.572;10.704;2023-11-19T01:27:23;1.17;;;0.50;;
52734;SDS011;38631;47.572;10.704;2023-11-19T01:29:51;0.90;;;0.40;;
52734;SDS011;38631;47.572;10.704;2023-11-19T01:32:16;1.33;;;0.52;;
52734;SDS011;38631;47.572;10.704;2023-11-19T01:34:42;1.05;;;0.60;;
52734;SDS011;38631;47.572;10.704;2023-11-19T01:37:07;1.48;;;0.57;;
52734;SDS011;38631;47.572;10.704;2023-11-19T01:39:37;0.85;;;0.57;;
52734;SDS011;38631;47.572;10.704;2023-11-19T01:42:03;1.98;;;0.80;;
52734;SDS011;38631;47.572;10.704;2023-11-19T01:44:28;2.75;;;0.90;;
52734;SDS011;38631;47.572;10.704;2023-11-19T01:46:53;1.20;;;0.65;;
52734;SDS011;38631;47.572;10.704;2023-11-19T01:49:19;2.42;;;0.80;;
52734;SDS011;38631;47.572;10.704;2023-11-19T01:51:45;1.02;;;0.60;;
52734;SDS011;38631;47.572;10.704;2023-11-19T01:54:12;1.58;;;0.40;;
52734;SDS011;38631;47.572;10.704;2023-11-19T01:56:38;0.85;;;0.40;;
52734;SDS011;38631;47.572;10.704;2023-11-19T01:59:06;0.65;;;0.45;;
52734;SDS011;38631;47.572;10.704;2023-11-19T02:01:32;0.75;;;0.35;;
52734;SDS011;38631;47.572;10.704;2023-11-19T02:06:29;0.70;;;0.40;;
52734;SDS011;38631;47.572;10.704;2023-11-19T02:08:58;0.57;;;0.20;;
52734;SDS011;38631;47.572;10.704;2023-11-19T02:11:23;1.00;;;0.35;;
52734;SDS011;38631;47.572;10.704;2023-11-19T02:13:54;0.40;;;0.30;;
52734;SDS011;38631;47.572;10.704;2023-11-19T02:16:20;2.47;;;0.60;;
52734;SDS011;38631;47.572;10.704;2023-11-19T02:18:45;0.80;;;0.50;;
52734;SDS011;38631;47.572;10.704;2023-11-19T02:21:10;1.95;;;0.60;;
52734;SDS011;38631;47.572;10.704;2023-11-19T02:23:36;1.67;;;0.90;;
52734;SDS011;38631;47.572;10.704;2023-11-19T02:26:18;1.40;;;0.57;;
52734;SDS011;38631;47.572;10.704;2023-11-19T02:28:58;14.75;;;8.10;;
52734;SDS011;38631;47.572;10.704;2023-11-19T02:31:23;1.15;;;0.50;;
52734;SDS011;38631;47.572;10.704;2023-11-19T02:33:52;6.70;;;3.00;;
52734;SDS011;38631;47.572;10.704;2023-11-19T02:36:18;7.88;;;4.93;;
52734;SDS011;38631;47.572;10.704;2023-11-19T02:38:43;8.05;;;4.10;;
52734;SDS011;38631;47.572;10.704;2023-11-19T02:41:08;5.93;;;3.05;;
52734;SDS011;38631;47.572;10.704;2023-11-19T02:43:35;5.45;;;2.80;;
52734;SDS011;38631;47.572;10.704;2023-11-19T02:46:02;2.88;;;1.52;;
52734;SDS011;38631;47.572;10.704;2023-11-19T02:48:34;6.05;;;2.55;;
52734;SDS011;38631;47.572;10.704;2023-11-19T02:51:03;2.50;;;1.30;;
52734;SDS011;38631;47.572;10.704;2023-11-19T02:53:32;2.13;;;1.00;;
52734;SDS011;38631;47.572;10.704;2023-11-19T02:55:57;1.00;;;0.50;;
52734;SDS011;38631;47.572;10.704;2023-11-19T02:58:31;1.52;;;0.57;;
52734;SDS011;38631;47.572;10.704;2023-11-19T03:00:56;0.57;;;0.28;;
52734;SDS011;38631;47.572;10.704;2023-11-19T03:03:26;0.55;;;0.30;;
52734;SDS011;38631;47.572;10.704;2023-11-19T03:06:12;0.43;;;0.30;;
52734;SDS011;38631;47.572;10.704;2023-11-19T03:08:37;0.40;;;0.30;;
52734;SDS011;38631;47.572;10.704;2023-11-19T03:11:03;0.50;;;0.30;;
52734;SDS011;38631;47.572;10.704;2023-11-19T03:13:29;0.47;;;0.28;;
52734;SDS011;38631;47.572;10.704;2023-11-19T03:15:55;0.50;;;0.28;;
52734;SDS011;38631;47.572;10.704;2023-11-19T03:18:20;0.50;;;0.40;;
52734;SDS011;38631;47.572;10.704;2023-11-19T03:20:46;0.28;;;0.22;;
52734;SDS011;38631;47.572;10.704;2023-11-19T03:23:12;0.68;;;0.47;;
52734;SDS011;38631;47.572;10.704;2023-11-19T03:25:37;2.35;;;1.95;;
52734;SDS011;38631;47.572;10.704;2023-11-19T03:28:03;2.28;;;1.40;;
52734;SDS011;38631;47.572;10.704;2023-11-19T03:30:29;0.50;;;0.50;;
52734;SDS011;38631;47.572;10.704;2023-11-19T03:32:58;0.77;;;0.52;;
52734;SDS011;38631;47.572;10.704;2023-11-19T03:35:24;0.70;;;0.60;;
52734;SDS011;38631;47.572;10.704;2023-11-19T03:37:50;0.50;;;0.40;;
52734;SDS011;38631;47.572;10.704;2023-11-19T03:40:16;1.27;;;0.50;;
52734;SDS011;38631;47.572;10.704;2023-11-19T03:42:42;0.50;;;0.25;;
52734;SDS011;38631;47.572;10.704;2023-11-19T03:45:07;0.50;;;0.40;;
52734;SDS011;38631;47.572;10.704;2023-11-19T03:47:36;2.17;;;0.28;;
52734;SDS011;38631;47.572;10.704;2023-11-19T03:50:02;0.80;;;0.50;;
52734;SDS011;38631;47.572;10.704;2023-11-19T03:52:28;0.50;;;0.40;;
52734;SDS011;38631;47.572;10.704;2023-11-19T03:54:57;1.27;;;0.20;;
52734;SDS011;38631;47.572;10.704;2023-11-19T03:57:22;1.05;;;0.28;;
52734;SDS011;38631;47.572;10.704;2023-11-19T03:59:48;0.28;;;0.20;;
52734;SDS011;38631;47.572;10.704;2023-11-19T04:02:13;0.30;;;0.30;;
52734;SDS011;38631;47.572;10.704;2023-11-19T04:04:40;0.47;;;0.20;;
52734;SDS011;38631;47.572;10.704;2023-11-19T04:07:05;1.10;;;0.40;;
52734;SDS011;38631;47.572;10.704;2023-11-19T04:09:31;0.43;;;0.30;;
52734;SDS011;38631;47.572;10.704;2023-11-19T04:11:58;1.15;;;0.30;;
52734;SDS011;38631;47.572;10.704;2023-11-19T04:14:24;0.30;;;0.20;;
52734;SDS011;38631;47.572;10.704;2023-11-19T04:16:49;2.15;;;0.40;;
52734;SDS011;38631;47.572;10.704;2023-11-19T04:19:15;0.80;;;0.60;;
52734;SDS011;38631;47.572;10.704;2023-11-19T04:21:41;0.47;;;0.30;;
52734;SDS011;38631;47.572;10.704;2023-11-19T04:24:08;0.30;;;0.20;;
52734;SDS011;38631;47.572;10.704;2023-11-19T04:26:44;0.85;;;0.35;;
52734;SDS011;38631;47.572;10.704;2023-11-19T04:29:13;0.17;;;0.17;;
52734;SDS011;38631;47.572;10.704;2023-11-19T04:31:40;0.93;;;0.30;;
52734;SDS011;38631;47.572;10.704;2023-11-19T04:34:06;0.30;;;0.25;;
52734;SDS011;38631;47.572;10.704;2023-11-19T04:36:32;1.23;;;0.40;;
52734;SDS011;38631;47.572;10.704;2023-11-19T04:38:59;0.90;;;0.47;;
52734;SDS011;38631;47.572;10.704;2023-11-19T04:41:25;0.75;;;0.75;;
52734;SDS011;38631;47.572;10.704;2023-11-19T04:43:52;0.55;;;0.40;;
52734;SDS011;38631;47.572;10.704;2023-11-19T04:46:17;0.75;;;0.40;;
52734;SDS011;38631;47.572;10.704;2023-11-19T04:48:44;0.52;;;0.30;;
52734;SDS011;38631;47.572;10.704;2023-11-19T04:51:09;2.00;;;0.82;;
52734;SDS011;38631;47.572;10.704;2023-11-19T04:53:35;0.82;;;0.50;;
52734;SDS011;38631;47.572;10.704;2023-11-19T04:56:00;0.70;;;0.35;;
52734;SDS011;38631;47.572;10.704;2023-11-19T04:58:25;0.77;;;0.65;;
52734;SDS011;38631;47.572;10.704;2023-11-19T05:00:54;0.50;;;0.40;;
52734;SDS011;38631;47.572;10.704;2023-11-19T05:03:19;0.50;;;0.47;;
52734;SDS011;38631;47.572;10.704;2023-11-19T05:05:45;0.50;;;0.40;;
52734;SDS011;38631;47.572;10.704;2023-11-19T05:08:10;0.75;;;0.45;;
52734;SDS011;38631;47.572;10.704;2023-11-19T05:10:36;1.77;;;0.80;;
52734;SDS011;38631;47.572;10.704;2023-11-19T05:13:01;1.27;;;0.40;;
52734;SDS011;38631;47.572;10.704;2023-11-19T05:15:27;0.57;;;0.30;;
52734;SDS011;38631;47.572;10.704;2023-11-19T05:17:53;0.40;;;0.28;;
52734;SDS011;38631;47.572;10.704;2023-11-19T05:20:18;0.70;;;0.30;;
52734;SDS011;38631;47.572;10.704;2023-11-19T05:22:43;1.10;;;0.60;;
52734;SDS011;38631;47.572;10.704;2023-11-19T05:25:10;0.60;;;0.40;;
52734;SDS011;38631;47.572;10.704;2023-11-19T05:27:36;0.73;;;0.50;;
52734;SDS011;38631;47.572;10.704;2023-11-19T05:30:02;1.83;;;0.60;;
52734;SDS011;38631;47.572;10.704;2023-11-19T05:32:28;0.40;;;0.30;;
52734;SDS011;38631;47.572;10.704;2023-11-19T05:34:54;0.43;;;0.35;;
52734;SDS011;38631;47.572;10.704;2023-11-19T05:37:19;1.25;;;0.85;;
52734;SDS011;38631;47.572;10.704;2023-11-19T05:39:45;4.38;;;0.93;;
52734;SDS011;38631;47.572;10.704;2023-11-19T05:42:10;2.83;;;1.20;;
52734;SDS011;38631;47.572;10.704;2023-11-19T05:44:36;2.35;;;0.88;;
52734;SDS011;38631;47.572;10.704;2023-11-19T05:47:02;1.50;;;0.90;;
52734;SDS011;38631;47.572;10.704;2023-11-19T05:49:28;1.20;;;1.05;;
52734;SDS011;38631;47.572;10.704;2023-11-19T05:51:54;1.05;;;0.75;;
52734;SDS011;38631;47.572;10.704;2023-11-19T05:54:20;1.55;;;1.00;;
52734;SDS011;38631;47.572;10.704;2023-11-19T05:56:49;3.88;;;2.95;;
52734;SDS011;38631;47.572;10.704;2023-11-19T05:59:14;2.08;;;1.23;;
52734;SDS011;38631;47.572;10.704;2023-11-19T06:01:42;1.30;;;0.80;;
52734;SDS011;38631;47.572;10.704;2023-11-19T06:04:08;0.88;;;0.65;;
52734;SDS011;38631;47.572;10.704;2023-11-19T06:06:34;0.57;;;0.40;;
52734;SDS011;38631;47.572;10.704;2023-11-19T06:08:59;2.78;;;0.90;;
52734;SDS011;38631;47.572;10.704;2023-11-19T06:11:24;2.35;;;0.90;;
52734;SDS011;38631;47.572;10.704;2023-11-19T06:13:51;2.85;;;1.63;;
52734;SDS011;38631;47.572;10.704;2023-11-19T06:16:17;2.05;;;1.17;;
52734;SDS011;38631;47.572;10.704;2023-11-19T06:18:43;1.25;;;0.50;;
52734;SDS011;38631;47.572;10.704;2023-11-19T06:21:09;1.52;;;0.85;;
52734;SDS011;38631;47.572;10.704;2023-11-19T06:23:35;1.88;;;0.77;;
52734;SDS011;38631;47.572;10.704;2023-11-19T06:26:00;1.17;;;0.90;;
52734;SDS011;38631;47.572;10.704;2023-11-19T06:28:25;0.70;;;0.60;;
52734;SDS011;38631;47.572;10.704;2023-11-19T06:30:51;1.90;;;1.02;;
52734;SDS011;38631;47.572;10.704;2023-11-19T06:33:16;1.90;;;0.88;;
52734;SDS011;38631;47.572;10.704;2023-11-19T06:35:41;2.35;;;0.98;;
52734;SDS011;38631;47.572;10.704;2023-11-19T06:38:07;1.00;;;0.70;;
52734;SDS011;38631;47.572;10.704;2023-11-19T06:40:32;1.30;;;0.90;;
52734;SDS011;38631;47.572;10.704;2023-11-19T06:43:00;2.08;;;1.20;;
52734;SDS011;38631;47.572;10.704;2023-11-19T06:45:25;1.20;;;0.90;;
52734;SDS011;38631;47.572;10.704;2023-11-19T06:47:51;1.17;;;0.60;;
52734;SDS011;38631;47.572;10.704;2023-11-19T06:50:16;5.78;;;1.02;;
52734;SDS011;38631;47.572;10.704;2023-11-19T06:52:41;1.90;;;1.58;;
52734;SDS011;38631;47.572;10.704;2023-11-19T06:55:07;1.13;;;1.00;;
52734;SDS011;38631;47.572;10.704;2023-11-19T06:57:33;1.02;;;0.85;;
52734;SDS011;38631;47.572;10.704;2023-11-19T06:59:58;1.95;;;1.20;;
52734;SDS011;38631;47.572;10.704;2023-11-19T07:02:24;1.50;;;1.40;;
52734;SDS011;38631;47.572;10.704;2023-11-19T07:04:50;1.60;;;1.20;;
52734;SDS011;38631;47.572;10.704;2023-11-19T07:07:16;2.97;;;1.25;;
52734;SDS011;38631;47.572;10.704;2023-11-19T07:09:41;3.33;;;2.25;;
52734;SDS011;38631;47.572;10.704;2023-11-19T07:12:07;3.05;;;2.20;;
52734;SDS011;38631;47.572;10.704;2023-11-19T07:14:32;2.67;;;1.75;;
52734;SDS011;38631;47.572;10.704;2023-11-19T07:16:57;2.05;;;1.70;;
52734;SDS011;38631;47.572;10.704;2023-11-19T07:19:25;1.90;;;1.45;;
52734;SDS011;38631;47.572;10.704;2023-11-19T07:21:50;1.70;;;1.30;;
52734;SDS011;38631;47.572;10.704;2023-11-19T07:24:16;1.58;;;1.20;;
52734;SDS011;38631;47.572;10.704;2023-11-19T07:26:45;1.60;;;1.17;;
52734;SDS011;38631;47.572;10.704;2023-11-19T07:29:12;1.20;;;0.98;;
52734;SDS011;38631;47.572;10.704;2023-11-19T07:31:38;1.73;;;0.90;;
52734;SDS011;38631;47.572;10.704;2023-11-19T07:34:03;1.23;;;0.80;;
52734;SDS011;38631;47.572;10.704;2023-11-19T07:36:31;1.42;;;1.20;;
52734;SDS011;38631;47.572;10.704;2023-11-19T07:38:57;1.20;;;1.10;;
52734;SDS011;38631;47.572;10.704;2023-11-19T07:41:23;1.30;;;1.00;;
52734;SDS011;38631;47.572;10.704;2023-11-19T07:43:50;1.15;;;0.60;;
52734;SDS011;38631;47.572;10.704;2023-11-19T07:46:17;0.90;;;0.50;;
52734;SDS011;38631;47.572;10.704;2023-11-19T07:48:44;0.85;;;0.65;;
52734;SDS011;38631;47.572;10.704;2023-11-19T07:51:12;1.60;;;0.80;;
52734;SDS011;38631;47.572;10.704;2023-11-19T07:53:38;2.90;;;0.77;;
52734;SDS011;38631;47.572;10.704;2023-11-19T07:56:03;2.97;;;1.20;;
52734;SDS011;38631;47.572;10.704;2023-11-19T07:58:29;1.73;;;0.90;;
52734;SDS011;38631;47.572;10.704;2023-11-19T08:00:54;1.90;;;1.60;;
52734;SDS011;38631;47.572;10.704;2023-11-19T08:03:20;5.93;;;3.30;;
52734;SDS011;38631;47.572;10.704;2023-11-19T08:05:47;5.10;;;2.80;;
52734;SDS011;38631;47.572;10.704;2023-11-19T08:08:12;5.07;;;3.10;;
52734;SDS011;38631;47.572;10.704;2023-11-19T08:10:38;2.58;;;1.90;;
52734;SDS011;38631;47.572;10.704;2023-11-19T08:13:04;3.42;;;2.42;;
52734;SDS011;38631;47.572;10.704;2023-11-19T08:15:30;3.08;;;1.85;;
52734;SDS011;38631;47.572;10.704;2023-11-19T08:17:55;2.72;;;2.05;;
52734;SDS011;38631;47.572;10.704;2023-11-19T08:20:21;2.45;;;1.58;;
52734;SDS011;38631;47.572;10.704;2023-11-19T08:22:47;3.60;;;2.13;;
52734;SDS011;38631;47.572;10.704;2023-11-19T08:25:12;2.22;;;1.40;;
52734;SDS011;38631;47.572;10.704;2023-11-19T08:27:38;3.03;;;1.70;;
52734;SDS011;38631;47.572;10.704;2023-11-19T08:30:04;2.92;;;1.80;;
52734;SDS011;38631;47.572;10.704;2023-11-19T08:32:31;2.55;;;2.17;;
52734;SDS011;38631;47.572;10.704;2023-11-19T08:34:56;5.75;;;4.00;;
52734;SDS011;38631;47.572;10.704;2023-11-19T08:37:22;5.05;;;3.97;;
52734;SDS011;38631;47.572;10.704;2023-11-19T08:39:47;2.83;;;1.80;;
52734;SDS011;38631;47.572;10.704;2023-11-19T08:42:13;3.05;;;1.77;;
52734;SDS011;38631;47.572;10.704;2023-11-19T08:44:39;3.10;;;2.55;;
52734;SDS011;38631;47.572;10.704;2023-11-19T08:47:08;3.45;;;2.28;;
52734;SDS011;38631;47.572;10.704;2023-11-19T08:49:34;4.15;;;3.03;;
52734;SDS011;38631;47.572;10.704;2023-11-19T08:52:00;3.70;;;3.03;;
52734;SDS011;38631;47.572;10.704;2023-11-19T08:54:25;3.53;;;2.75;;
52734;SDS011;38631;47.572;10.704;2023-11-19T08:56:50;4.97;;;2.63;;
52734;SDS011;38631;47.572;10.704;2023-11-19T08:59:16;3.63;;;2.90;;
52734;SDS011;38631;47.572;10.704;2023-11-19T09:01:41;3.40;;;2.40;;
52734;SDS011;38631;47.572;10.704;2023-11-19T09:04:07;5.63;;;3.85;;
52734;SDS011;38631;47.572;10.704;2023-11-19T09:06:32;4.00;;;2.53;;
52734;SDS011;38631;47.572;10.704;2023-11-19T09:09:00;4.47;;;3.80;;
52734;SDS011;38631;47.572;10.704;2023-11-19T09:11:28;4.30;;;3.15;;
52734;SDS011;38631;47.572;10.704;2023-11-19T09:13:53;8.75;;;4.32;;
52734;SDS011;38631;47.572;10.704;2023-11-19T09:16:19;5.75;;;3.67;;
52734;SDS011;38631;47.572;10.704;2023-11-19T09:18:44;8.50;;;5.75;;
52734;SDS011;38631;47.572;10.704;2023-11-19T09:21:12;8.10;;;5.60;;
52734;SDS011;38631;47.572;10.704;2023-11-19T09:23:38;6.90;;;4.40;;
52734;SDS011;38631;47.572;10.704;2023-11-19T09:26:10;9.88;;;8.38;;
52734;SDS011;38631;47.572;10.704;2023-11-19T09:28:35;6.40;;;4.65;;
52734;SDS011;38631;47.572;10.704;2023-11-19T09:31:01;9.27;;;7.18;;
52734;SDS011;38631;47.572;10.704;2023-11-19T09:33:29;10.85;;;7.10;;
52734;SDS011;38631;47.572;10.704;2023-11-19T09:35:55;6.97;;;4.57;;
52734;SDS011;38631;47.572;10.704;2023-11-19T09:38:21;11.48;;;7.10;;
52734;SDS011;38631;47.572;10.704;2023-11-19T09:40:46;6.53;;;4.05;;
52734;SDS011;38631;47.572;10.704;2023-11-19T09:43:12;3.72;;;2.30;;
52734;SDS011;38631;47.572;10.704;2023-11-19T09:45:47;4.20;;;2.95;;
52734;SDS011;38631;47.572;10.704;2023-11-19T09:48:16;3.92;;;3.17;;
52734;SDS011;38631;47.572;10.704;2023-11-19T09:50:44;5.05;;;2.85;;
52734;SDS011;38631;47.572;10.704;2023-11-19T09:53:11;6.32;;;4.32;;
52734;SDS011;38631;47.572;10.704;2023-11-19T09:55:37;9.70;;;5.28;;
52734;SDS011;38631;47.572;10.704;2023-11-19T09:58:03;13.05;;;7.72;;
52734;SDS011;38631;47.572;10.704;2023-11-19T10:00:28;9.02;;;5.63;;
52734;SDS011;38631;47.572;10.704;2023-11-19T10:02:55;6.85;;;4.47;;
52734;SDS011;38631;47.572;10.704;2023-11-19T10:05:22;9.32;;;5.22;;
52734;SDS011;38631;47.572;10.704;2023-11-19T10:07:49;5.28;;;3.65;;
52734;SDS011;38631;47.572;10.704;2023-11-19T10:10:14;6.20;;;4.60;;
52734;SDS011;38631;47.572;10.704;2023-11-19T10:12:43;7.65;;;4.07;;
52734;SDS011;38631;47.572;10.704;2023-11-19T10:15:12;6.35;;;4.55;;
52734;SDS011;38631;47.572;10.704;2023-11-19T10:17:45;7.50;;;5.22;;
52734;SDS011;38631;47.572;10.704;2023-11-19T10:20:10;10.95;;;6.78;;
52734;SDS011;38631;47.572;10.704;2023-11-19T10:22:39;8.18;;;5.50;;
52734;SDS011;38631;47.572;10.704;2023-11-19T10:25:26;7.65;;;5.63;;
52734;SDS011;38631;47.572;10.704;2023-11-19T10:27:51;7.30;;;4.60;;
52734;SDS011;38631;47.572;10.704;2023-11-19T10:30:24;7.25;;;5.07;;
52734;SDS011;38631;47.572;10.704;2023-11-19T10:33:07;6.75;;;5.40;;
52734;SDS011;38631;47.572;10.704;2023-11-19T10:35:33;7.53;;;5.38;;
52734;SDS011;38631;47.572;10.704;2023-11-19T10:38:00;5.65;;;4.35;;
52734;SDS011;38631;47.572;10.704;2023-11-19T10:40:38;6.15;;;4.50;;
52734;SDS011;38631;47.572;10.704;2023-11-19T10:43:30;4.95;;;3.47;;
52734;SDS011;38631;47.572;10.704;2023-11-19T10:46:17;4.30;;;3.22;;
52734;SDS011;38631;47.572;10.704;2023-11-19T10:48:46;7.13;;;3.70;;
52734;SDS011;38631;47.572;10.704;2023-11-19T10:51:11;4.63;;;3.60;;
52734;SDS011;38631;47.572;10.704;2023-11-19T10:53:46;7.03;;;4.30;;
52734;SDS011;38631;47.572;10.704;2023-11-19T10:56:16;6.43;;;5.07;;
52734;SDS011;38631;47.572;10.704;2023-11-19T10:58:45;9.33;;;7.20;;
52734;SDS011;38631;47.572;10.704;2023-11-19T11:01:19;11.48;;;8.07;;
52734;SDS011;38631;47.572;10.704;2023-11-19T11:03:48;20.42;;;12.35;;
52734;SDS011;38631;47.572;10.704;2023-11-19T11:06:18;11.38;;;8.13;;
52734;SDS011;38631;47.572;10.704;2023-11-19T11:08:44;6.63;;;5.97;;
52734;SDS011;38631;47.572;10.704;2023-11-19T11:11:12;7.30;;;5.53;;
52734;SDS011;38631;47.572;10.704;2023-11-19T11:13:41;8.38;;;4.90;;
52734;SDS011;38631;47.572;10.704;2023-11-19T11:16:08;3.65;;;3.10;;
52734;SDS011;38631;47.572;10.704;2023-11-19T11:18:33;4.95;;;2.85;;
52734;SDS011;38631;47.572;10.704;2023-11-19T11:21:20;4.30;;;2.30;;
52734;SDS011;38631;47.572;10.704;2023-11-19T11:29:37;4.65;;;2.30;;
52734;SDS011;38631;47.572;10.704;2023-11-19T11:37:18;3.17;;;2.10;;
52734;SDS011;38631;47.572;10.704;2023-11-19T11:39:58;3.08;;;2.50;;
52734;SDS011;38631;47.572;10.704;2023-11-19T11:42:30;11.48;;;6.97;;
52734;SDS011;38631;47.572;10.704;2023-11-19T11:45:02;9.35;;;6.30;;
52734;SDS011;38631;47.572;10.704;2023-11-19T11:50:07;7.90;;;5.10;;
52734;SDS011;38631;47.572;10.704;2023-11-19T11:53:13;5.30;;;4.18;;
52734;SDS011;38631;47.572;10.704;2023-11-19T11:57:57;7.13;;;5.43;;
52734;SDS011;38631;47.572;10.704;2023-11-19T12:02:59;6.60;;;4.68;;
52734;SDS011;38631;47.572;10.704;2023-11-19T12:05:25;8.68;;;5.55;;
52734;SDS011;38631;47.572;10.704;2023-11-19T12:07:54;4.45;;;3.65;;
52734;SDS011;38631;47.572;10.704;2023-11-19T12:10:21;4.47;;;3.38;;
52734;SDS011;38631;47.572;10.704;2023-11-19T12:12:47;3.70;;;2.70;;
52734;SDS011;38631;47.572;10.704;2023-11-19T12:15:12;9.38;;;6.00;;
52734;SDS011;38631;47.572;10.704;2023-11-19T12:20:10;4.07;;;2.55;;
52734;SDS011;38631;47.572;10.704;2023-11-19T12:22:40;1.95;;;1.23;;
52734;SDS011;38631;47.572;10.704;2023-11-19T12:25:09;1.70;;;1.13;;
52734;SDS011;38631;47.572;10.704;2023-11-19T12:27:37;1.80;;;1.10;;
52734;SDS011;38631;47.572;10.704;2023-11-19T12:30:05;3.70;;;1.40;;
52734;SDS011;38631;47.572;10.704;2023-11-19T12:32:41;2.75;;;1.63;;
52734;SDS011;38631;47.572;10.704;2023-11-19T12:35:08;2.38;;;1.17;;
52734;SDS011;38631;47.572;10.704;2023-11-19T12:37:41;3.33;;;1.00;;
52734;SDS011;38631;47.572;10.704;2023-11-19T12:40:17;2.22;;;1.30;;
52734;SDS011;38631;47.572;10.704;2023-11-19T12:42:54;2.22;;;1.33;;
52734;SDS011;38631;47.572;10.704;2023-11-19T12:45:24;1.90;;;1.30;;
52734;SDS011;38631;47.572;10.704;2023-11-19T12:47:50;1.73;;;1.17;;
52734;SDS011;38631;47.572;10.704;2023-11-19T12:53:22;1.30;;;0.98;;
52734;SDS011;38631;47.572;10.704;2023-11-19T12:55:48;1.43;;;0.83;;
52734;SDS011;38631;47.572;10.704;2023-11-19T12:58:34;1.25;;;0.90;;
52734;SDS011;38631;47.572;10.704;2023-11-19T13:01:04;1.45;;;0.82;;
52734;SDS011;38631;47.572;10.704;2023-11-19T13:03:34;2.78;;;1.70;;
52734;SDS011;38631;47.572;10.704;2023-11-19T13:06:22;3.63;;;2.45;;
52734;SDS011;38631;47.572;10.704;2023-11-19T13:08:48;3.17;;;2.38;;
52734;SDS011;38631;47.572;10.704;2023-11-19T13:11:33;6.55;;;3.60;;
52734;SDS011;38631;47.572;10.704;2023-11-19T13:14:01;4.60;;;3.40;;
52734;SDS011;38631;47.572;10.704;2023-11-19T13:16:33;5.80;;;3.97;;
52734;SDS011;38631;47.572;10.704;2023-11-19T13:19:01;5.57;;;4.30;;
52734;SDS011;38631;47.572;10.704;2023-11-19T13:21:28;6.15;;;5.07;;
52734;SDS011;38631;47.572;10.704;2023-11-19T13:23:54;6.03;;;3.97;;
52734;SDS011;38631;47.572;10.704;2023-11-19T13:26:20;5.00;;;4.50;;
52734;SDS011;38631;47.572;10.704;2023-11-19T13:28:46;6.07;;;4.65;;
52734;SDS011;38631;47.572;10.704;2023-11-19T13:31:12;7.40;;;5.03;;
52734;SDS011;38631;47.572;10.704;2023-11-19T13:33:39;13.93;;;10.30;;
52734;SDS011;38631;47.572;10.704;2023-11-19T13:36:05;8.85;;;6.15;;
52734;SDS011;38631;47.572;10.704;2023-11-19T13:38:32;8.57;;;5.25;;
52734;SDS011;38631;47.572;10.704;2023-11-19T13:41:01;11.13;;;6.78;;
52734;SDS011;38631;47.572;10.704;2023-11-19T13:43:30;11.88;;;8.95;;
52734;SDS011;38631;47.572;10.704;2023-11-19T13:45:56;8.20;;;5.53;;
52734;SDS011;38631;47.572;10.704;2023-11-19T13:48:23;5.60;;;3.22;;
52734;SDS011;38631;47.572;10.704;2023-11-19T13:50:49;8.35;;;5.63;;
52734;SDS011;38631;47.572;10.704;2023-11-19T13:53:14;8.95;;;6.43;;
52734;SDS011;38631;47.572;10.704;2023-11-19T13:55:47;7.43;;;5.22;;
52734;SDS011;38631;47.572;10.704;2023-11-19T13:58:33;7.53;;;5.45;;
52734;SDS011;38631;47.572;10.704;2023-11-19T14:01:00;6.35;;;4.60;;
52734;SDS011;38631;47.572;10.704;2023-11-19T14:03:26;5.45;;;3.78;;
52734;SDS011;38631;47.572;10.704;2023-11-19T14:05:54;2.88;;;2.20;;
52734;SDS011;38631;47.572;10.704;2023-11-19T14:08:20;2.75;;;2.20;;
52734;SDS011;38631;47.572;10.704;2023-11-19T14:10:46;4.20;;;3.03;;
52734;SDS011;38631;47.572;10.704;2023-11-19T14:13:12;3.03;;;2.60;;
52734;SDS011;38631;47.572;10.704;2023-11-19T14:15:40;5.95;;;4.45;;
52734;SDS011;38631;47.572;10.704;2023-11-19T14:18:07;10.05;;;7.38;;
52734;SDS011;38631;47.572;10.704;2023-11-19T14:20:36;17.17;;;12.25;;
52734;SDS011;38631;47.572;10.704;2023-11-19T14:23:04;10.75;;;7.90;;
52734;SDS011;38631;47.572;10.704;2023-11-19T14:25:30;8.68;;;6.90;;
52734;SDS011;38631;47.572;10.704;2023-11-19T14:27:56;7.82;;;6.05;;
52734;SDS011;38631;47.572;10.704;2023-11-19T14:30:22;4.90;;;3.28;;
52734;SDS011;38631;47.572;10.704;2023-11-19T14:32:51;5.15;;;2.65;;
52734;SDS011;38631;47.572;10.704;2023-11-19T14:35:41;4.97;;;2.80;;
52734;SDS011;38631;47.572;10.704;2023-11-19T14:38:08;6.47;;;3.15;;
52734;SDS011;38631;47.572;10.704;2023-11-19T14:40:35;4.43;;;3.53;;
52734;SDS011;38631;47.572;10.704;2023-11-19T14:43:01;13.45;;;9.60;;
52734;SDS011;38631;47.572;10.704;2023-11-19T14:45:44;15.10;;;11.05;;
52734;SDS011;38631;47.572;10.704;2023-11-19T14:48:29;9.18;;;6.47;;
52734;SDS011;38631;47.572;10.704;2023-11-19T14:50:58;8.23;;;5.63;;
52734;SDS011;38631;47.572;10.704;2023-11-19T14:53:24;3.88;;;2.78;;
52734;SDS011;38631;47.572;10.704;2023-11-19T14:55:50;4.15;;;3.05;;
52734;SDS011;38631;47.572;10.704;2023-11-19T14:58:16;14.93;;;9.35;;
52734;SDS011;38631;47.572;10.704;2023-11-19T15:00:42;8.50;;;6.00;;
52734;SDS011;38631;47.572;10.704;2023-11-19T15:03:07;8.90;;;6.28;;